Terminal Aerodrome Forecast
Issued by NWS Charleston, WV

Home | Current Version | Previous Version | Text Only | Print | Product List | Glossary On
Versions: 1 2 3 4 5 6 7 8 9 10 11 12 13 14 15 16 17 18 19 20 21 22 23 24 25 26
000
FTUS41 KRLX 201739 AAB
TAFEKN
TAF AMD
KEKN 201739Z 2018/2118 35004KT P6SM VCTS BKN040CB
     FM210000 00000KT P6SM BKN040
     FM210500 00000KT 4SM BR SCT040
     FM210900 00000KT 2SM BR SCT040
     FM211100 00000KT 1SM BR SCT001
     FM211300 00000KT 3SM BR SCT015
     FM211400 00000KT P6SM SCT025=

USA.gov is the U.S. government's official web portal to all federal, state and local government web resources and services.